createdAt,value
2017-10-24T00:01:46.794Z,90.00
2017-10-24T00:04:14.333Z,90.00
2017-10-24T00:06:41.898Z,89.90
2017-10-24T00:09:09.458Z,90.00
2017-10-24T00:11:37.018Z,90.00
2017-10-24T00:14:04.610Z,90.00
2017-10-24T00:16:32.172Z,89.60
2017-10-24T00:18:59.721Z,89.60
2017-10-24T00:21:27.287Z,89.80
2017-10-24T00:23:54.836Z,89.90
2017-10-24T00:26:22.415Z,90.00
2017-10-24T00:28:49.974Z,90.00
2017-10-24T00:31:17.519Z,89.90
2017-10-24T00:33:45.070Z,89.80
2017-10-24T00:36:12.625Z,89.40
2017-10-24T00:38:40.200Z,89.30
2017-10-24T00:41:07.748Z,88.60
2017-10-24T00:43:35.335Z,88.60
2017-10-24T00:46:02.890Z,88.50
2017-10-24T00:48:30.457Z,88.30
2017-10-24T00:50:58.022Z,88.40
2017-10-24T00:53:25.606Z,89.00
2017-10-24T00:55:53.964Z,88.30
2017-10-24T00:58:21.525Z,88.10
2017-10-24T01:00:49.109Z,88.20
2017-10-24T01:03:17.445Z,88.20
2017-10-24T01:05:45.005Z,88.20
2017-10-24T01:08:12.563Z,88.10
2017-10-24T01:10:40.146Z,88.20
2017-10-24T01:13:07.699Z,87.90
2017-10-24T01:15:35.248Z,87.80
2017-10-24T01:18:02.800Z,87.50
2017-10-24T01:20:30.374Z,87.80
2017-10-24T01:22:57.944Z,87.70
2017-10-24T01:25:25.514Z,87.50
2017-10-24T01:27:53.082Z,88.00
2017-10-24T01:30:20.652Z,88.10
2017-10-24T01:32:49.041Z,88.50
2017-10-24T01:35:17.379Z,88.60
2017-10-24T01:37:44.956Z,88.40
2017-10-24T01:40:12.549Z,88.30
2017-10-24T01:42:40.169Z,88.00
2017-10-24T01:45:07.755Z,88.10
2017-10-24T01:47:36.080Z,88.30
2017-10-24T01:50:03.658Z,88.20
2017-10-24T01:52:31.982Z,88.00
2017-10-24T01:55:00.321Z,88.00
2017-10-24T01:57:27.867Z,88.00
2017-10-24T01:59:55.446Z,88.10
2017-10-24T02:02:23.023Z,88.20
2017-10-24T02:04:51.375Z,89.10
2017-10-24T02:07:18.969Z,88.30
2017-10-24T02:09:47.300Z,88.60
2017-10-24T02:12:14.901Z,88.50
2017-10-24T02:14:43.215Z,89.00
2017-10-24T02:17:10.813Z,88.90
2017-10-24T02:19:38.403Z,89.10
2017-10-24T02:22:06.753Z,89.40
2017-10-24T02:24:38.987Z,89.80
2017-10-24T02:27:06.538Z,89.60
2017-10-24T02:29:34.118Z,89.80
2017-10-24T02:32:01.679Z,89.50
2017-10-24T02:34:29.241Z,89.60
2017-10-24T02:36:56.800Z,89.80
2017-10-24T02:39:24.406Z,90.00
2017-10-24T02:41:51.982Z,90.50
2017-10-24T02:44:20.325Z,90.60
2017-10-24T02:46:47.885Z,90.90
2017-10-24T02:49:15.464Z,90.60
2017-10-24T02:51:43.034Z,90.90
2017-10-24T02:54:10.595Z,90.90
2017-10-24T02:56:38.147Z,90.80
2017-10-24T02:59:05.703Z,91.30
2017-10-24T03:01:33.267Z,90.90
2017-10-24T03:04:00.838Z,90.80
2017-10-24T03:06:29.177Z,91.00
2017-10-24T03:08:56.753Z,91.00
2017-10-24T03:11:24.338Z,91.10
2017-10-24T03:13:52.674Z,91.10
2017-10-24T03:16:20.233Z,91.10
2017-10-24T03:18:47.782Z,91.10
2017-10-24T03:21:15.388Z,90.90
2017-10-24T03:23:42.958Z,91.00
2017-10-24T03:26:11.310Z,90.70
2017-10-24T03:28:38.853Z,90.70
2017-10-24T03:31:06.428Z,90.70
2017-10-24T03:33:33.994Z,90.60
2017-10-24T03:36:01.562Z,90.50
2017-10-24T03:38:29.105Z,90.50
2017-10-24T03:40:56.686Z,90.60
2017-10-24T03:43:24.236Z,90.50
2017-10-24T03:45:51.795Z,90.40
2017-10-24T03:48:19.360Z,90.40
2017-10-24T03:50:46.946Z,90.40
2017-10-24T03:53:15.273Z,90.30
2017-10-24T03:55:42.840Z,90.30
2017-10-24T03:58:10.397Z,90.20
2017-10-24T04:00:37.956Z,90.10
2017-10-24T04:03:05.544Z,90.00
2017-10-24T04:05:33.123Z,90.10
2017-10-24T04:08:01.467Z,90.10
2017-10-24T04:10:29.000Z,90.10
2017-10-24T04:12:56.566Z,90.20
2017-10-24T04:15:24.115Z,90.20
2017-10-24T04:17:51.692Z,90.10
2017-10-24T04:20:19.250Z,90.40
2017-10-24T04:22:46.844Z,90.40
2017-10-24T04:25:14.404Z,90.30
2017-10-24T04:27:41.961Z,90.20
2017-10-24T04:30:09.549Z,90.40
2017-10-24T04:32:37.142Z,90.50
2017-10-24T04:35:04.727Z,90.60
2017-10-24T04:37:32.266Z,90.60
2017-10-24T04:39:59.882Z,90.70
2017-10-24T04:42:27.432Z,90.90
2017-10-24T04:44:54.990Z,90.90
2017-10-24T04:47:22.538Z,91.00
2017-10-24T04:49:50.112Z,91.10
2017-10-24T04:52:17.659Z,91.10
2017-10-24T04:54:45.239Z,91.10
2017-10-24T04:57:12.861Z,91.00
2017-10-24T04:59:41.179Z,91.10
2017-10-24T05:02:08.746Z,91.10
2017-10-24T05:04:36.311Z,91.00
2017-10-24T05:07:03.863Z,91.20
2017-10-24T05:09:31.440Z,90.80
2017-10-24T05:11:59.020Z,90.80
2017-10-24T05:14:26.578Z,90.60
2017-10-24T05:16:54.166Z,90.60
2017-10-24T05:19:22.689Z,90.40
2017-10-24T05:21:50.278Z,90.40
2017-10-24T05:24:17.863Z,90.20
2017-10-24T05:26:46.192Z,90.10
2017-10-24T05:29:14.421Z,90.10
2017-10-24T05:31:42.750Z,89.50
2017-10-24T05:34:10.319Z,89.40
2017-10-24T05:36:37.889Z,89.10
2017-10-24T05:39:05.451Z,89.20
2017-10-24T05:41:33.012Z,89.20
2017-10-24T05:44:01.434Z,89.10
2017-10-24T05:46:28.978Z,88.80
2017-10-24T05:48:56.554Z,88.10
2017-10-24T05:51:24.168Z,87.80
2017-10-24T05:53:51.743Z,87.60
2017-10-24T05:56:20.078Z,87.00
2017-10-24T05:58:47.647Z,86.90
2017-10-24T06:01:15.261Z,87.10
2017-10-24T06:03:43.617Z,87.00
2017-10-24T06:06:11.181Z,87.00
2017-10-24T06:08:39.489Z,86.90
2017-10-24T06:11:07.070Z,86.70
2017-10-24T06:13:34.646Z,86.80
2017-10-24T06:16:02.221Z,86.80
2017-10-24T06:18:29.794Z,86.80
2017-10-24T06:20:58.163Z,86.50
2017-10-24T06:23:26.102Z,86.40
2017-10-24T06:25:53.661Z,86.30
2017-10-24T06:28:21.234Z,86.00
2017-10-24T06:30:48.930Z,86.00
2017-10-24T06:33:17.299Z,86.10
2017-10-24T06:35:44.881Z,86.10
2017-10-24T06:38:13.881Z,84.90
2017-10-24T06:40:41.570Z,84.80
2017-10-24T06:43:09.157Z,84.80
2017-10-24T06:45:36.697Z,85.10
2017-10-24T06:48:04.261Z,85.10
2017-10-24T06:50:31.838Z,85.20
2017-10-24T06:52:59.399Z,85.50
2017-10-24T06:55:26.978Z,85.30
2017-10-24T06:57:54.538Z,84.60
2017-10-24T07:00:22.119Z,83.90
2017-10-24T07:02:50.466Z,83.90
2017-10-24T07:05:18.065Z,83.90
2017-10-24T07:07:46.398Z,83.80
2017-10-24T07:10:14.010Z,83.70
2017-10-24T07:12:42.346Z,82.80
2017-10-24T07:15:09.916Z,83.50
2017-10-24T07:17:37.493Z,82.70
2017-10-24T07:20:05.845Z,82.60
2017-10-24T07:22:33.406Z,82.60
2017-10-24T07:25:01.032Z,82.50
2017-10-24T07:27:28.624Z,82.30
2017-10-24T07:29:56.362Z,81.70
2017-10-24T07:32:23.940Z,82.50
2017-10-24T07:34:51.698Z,82.20
2017-10-24T07:37:19.266Z,81.90
2017-10-24T07:39:46.866Z,81.30
2017-10-24T07:42:15.194Z,80.60
2017-10-24T07:44:42.757Z,80.60
2017-10-24T07:47:10.336Z,80.70
2017-10-24T07:49:37.901Z,79.90
2017-10-24T07:52:05.470Z,79.60
2017-10-24T07:54:33.040Z,79.50
2017-10-24T07:57:01.376Z,79.40
2017-10-24T07:59:28.927Z,79.40
2017-10-24T08:01:56.525Z,79.70
2017-10-24T08:04:24.089Z,78.80
2017-10-24T08:06:51.657Z,78.40
2017-10-24T08:09:19.280Z,78.00
2017-10-24T08:11:46.865Z,78.90
2017-10-24T08:14:14.435Z,78.60
2017-10-24T08:16:42.008Z,78.00
2017-10-24T08:19:10.342Z,78.50
2017-10-24T08:21:37.901Z,78.40
2017-10-24T08:24:05.458Z,78.00
2017-10-24T08:26:33.771Z,77.60
2017-10-24T08:29:01.352Z,76.90
2017-10-24T08:31:29.686Z,76.10
2017-10-24T08:33:57.294Z,76.10
2017-10-24T08:36:24.851Z,77.00
2017-10-24T08:38:53.179Z,76.30
2017-10-24T08:41:20.742Z,76.20
2017-10-24T08:43:48.296Z,76.30
2017-10-24T08:46:15.862Z,76.20
2017-10-24T08:48:45.160Z,76.00
2017-10-24T08:51:11.021Z,76.00
2017-10-24T08:53:39.347Z,75.80
2017-10-24T08:56:06.943Z,75.70
2017-10-24T08:58:34.533Z,75.60
2017-10-24T09:01:02.894Z,75.70
2017-10-24T09:03:31.234Z,74.60
2017-10-24T09:06:23.663Z,74.60
2017-10-24T09:08:54.203Z,75.00
2017-10-24T09:11:33.587Z,73.60
2017-10-24T09:14:02.725Z,73.60
2017-10-24T09:16:57.013Z,73.60
2017-10-24T09:22:24.155Z,72.70
2017-10-24T09:24:52.492Z,72.90
2017-10-24T09:27:20.061Z,72.90
2017-10-24T09:29:47.638Z,72.70
2017-10-24T09:32:16.333Z,72.10
2017-10-24T09:34:44.650Z,71.30
2017-10-24T09:37:12.261Z,71.30
2017-10-24T09:39:40.598Z,70.80
2017-10-24T09:42:08.160Z,70.80
2017-10-24T09:44:35.743Z,70.90
2017-10-24T09:47:03.277Z,70.80
2017-10-24T09:49:31.613Z,70.00
2017-10-24T09:51:59.979Z,70.10
2017-10-24T09:54:28.338Z,69.70
2017-10-24T09:56:55.932Z,69.70
2017-10-24T09:59:40.068Z,69.80
2017-10-24T10:02:08.427Z,69.80
2017-10-24T10:04:35.981Z,69.80
2017-10-24T10:07:10.560Z,70.00
2017-10-24T10:09:38.143Z,69.20
2017-10-24T10:12:09.473Z,68.80
2017-10-24T10:14:37.034Z,68.80
2017-10-24T10:17:04.621Z,68.50
2017-10-24T10:19:32.192Z,68.00
2017-10-24T10:21:59.768Z,68.60
2017-10-24T10:24:42.227Z,68.20
2017-10-24T10:27:09.801Z,67.90
2017-10-24T10:29:37.360Z,66.90
2017-10-24T10:32:04.937Z,67.30
2017-10-24T10:37:28.872Z,66.40
2017-10-24T10:39:56.473Z,65.60
2017-10-24T10:42:24.040Z,65.80
2017-10-24T10:44:51.590Z,66.80
2017-10-24T10:47:19.141Z,65.40
2017-10-24T10:49:46.687Z,65.40
2017-10-24T10:52:14.261Z,64.40
2017-10-24T10:54:41.802Z,64.50
2017-10-24T10:57:09.371Z,64.30
2017-10-24T10:59:37.015Z,64.60
2017-10-24T11:02:04.635Z,63.40
2017-10-24T11:04:32.943Z,61.20
2017-10-24T11:07:00.515Z,61.20
2017-10-24T11:09:28.078Z,60.50
2017-10-24T11:11:55.642Z,60.30
2017-10-24T11:14:23.184Z,59.90
2017-10-24T11:16:50.763Z,59.90
2017-10-24T11:19:18.307Z,59.80
2017-10-24T11:21:45.878Z,59.40
2017-10-24T11:24:13.440Z,59.00
2017-10-24T11:26:45.440Z,58.80
2017-10-24T11:29:13.800Z,58.30
2017-10-24T11:31:41.341Z,58.40
2017-10-24T11:34:08.905Z,58.60
2017-10-24T11:36:36.471Z,59.60
2017-10-24T11:39:04.099Z,59.10
2017-10-24T11:41:31.633Z,59.50
2017-10-24T11:43:59.946Z,60.30
2017-10-24T11:46:27.503Z,60.30
2017-10-24T11:48:55.042Z,60.20
2017-10-24T11:51:23.379Z,61.80
2017-10-24T11:53:50.934Z,61.80
2017-10-24T11:56:18.537Z,62.10
2017-10-24T11:58:46.860Z,64.30
2017-10-24T12:01:14.411Z,65.00
2017-10-24T12:03:41.943Z,64.60
2017-10-24T12:06:09.777Z,65.50
2017-10-24T12:08:37.324Z,65.10
2017-10-24T12:11:04.874Z,65.40
2017-10-24T12:13:32.457Z,65.80
2017-10-24T12:16:00.038Z,65.70
2017-10-24T12:18:28.393Z,66.70
2017-10-24T12:20:55.928Z,66.60
2017-10-24T12:23:23.526Z,66.80
2017-10-24T12:25:51.851Z,65.90
2017-10-24T12:28:19.420Z,65.90
2017-10-24T12:30:46.972Z,66.60
2017-10-24T12:33:14.521Z,66.60
2017-10-24T12:35:42.842Z,66.20
2017-10-24T12:38:10.428Z,66.20
2017-10-24T12:40:38.741Z,66.60
2017-10-24T12:43:06.311Z,66.60
2017-10-24T12:45:33.871Z,66.10
2017-10-24T12:48:01.472Z,66.30
2017-10-24T12:50:31.007Z,66.20
2017-10-24T12:52:59.370Z,65.90
2017-10-24T12:55:26.904Z,65.90
2017-10-24T12:58:09.229Z,66.00
2017-10-24T13:00:36.820Z,65.60
2017-10-24T13:03:05.143Z,65.50
2017-10-24T13:05:32.710Z,65.50
2017-10-24T13:08:00.299Z,65.20
2017-10-24T13:10:28.652Z,66.80
2017-10-24T13:12:56.283Z,66.70
2017-10-24T13:15:23.836Z,67.00
2017-10-24T13:17:51.438Z,67.60
2017-10-24T13:20:18.994Z,67.50
2017-10-24T13:22:46.565Z,67.50
2017-10-24T13:25:14.201Z,67.70
2017-10-24T13:27:41.770Z,67.30
2017-10-24T13:30:09.326Z,67.10
2017-10-24T13:32:36.941Z,66.80
2017-10-24T13:35:04.517Z,66.80
2017-10-24T13:37:32.108Z,67.00
2017-10-24T13:39:59.708Z,67.00
2017-10-24T13:42:28.030Z,66.60
2017-10-24T13:44:55.593Z,66.60
2017-10-24T13:47:23.161Z,66.80
2017-10-24T13:49:50.739Z,66.70
2017-10-24T13:52:18.295Z,66.40
2017-10-24T13:54:45.872Z,65.80
2017-10-24T13:57:13.442Z,65.30
2017-10-24T13:59:40.990Z,65.10
2017-10-24T14:02:08.552Z,65.00
2017-10-24T14:04:41.972Z,65.90
2017-10-24T14:07:15.368Z,65.50
2017-10-24T14:09:48.533Z,65.30
2017-10-24T14:12:16.096Z,65.20
2017-10-24T14:14:43.641Z,65.40
2017-10-24T14:17:11.318Z,66.50
2017-10-24T14:19:38.931Z,65.90
2017-10-24T14:22:06.510Z,65.60
2017-10-24T14:24:34.122Z,66.10
2017-10-24T14:27:01.745Z,66.60
2017-10-24T14:29:29.338Z,67.20
2017-10-24T14:31:57.679Z,68.40
2017-10-24T14:34:25.417Z,68.40
2017-10-24T14:36:52.997Z,68.30
2017-10-24T14:39:20.583Z,69.30
2017-10-24T14:41:49.336Z,69.40
2017-10-24T14:44:17.769Z,70.80
2017-10-24T14:46:45.390Z,70.00
2017-10-24T14:49:13.067Z,69.90
2017-10-24T14:51:40.625Z,70.10
2017-10-24T14:54:08.261Z,69.90
2017-10-24T14:56:35.798Z,69.70
2017-10-24T14:59:04.143Z,70.20
2017-10-24T15:01:31.858Z,70.20
2017-10-24T15:03:59.455Z,70.40
2017-10-24T15:06:27.058Z,70.30
2017-10-24T15:08:57.353Z,70.40
2017-10-24T15:11:26.015Z,70.70
2017-10-24T15:13:53.568Z,70.70
2017-10-24T15:16:21.177Z,69.80
2017-10-24T15:18:48.763Z,70.30
2017-10-24T15:21:17.125Z,70.50
2017-10-24T15:23:45.391Z,71.40
2017-10-24T15:26:14.628Z,71.00
2017-10-24T15:28:42.233Z,71.20
2017-10-24T15:31:09.868Z,71.60
2017-10-24T15:33:38.254Z,70.90
2017-10-24T15:36:06.626Z,70.70
2017-10-24T15:38:34.244Z,70.70
2017-10-24T15:41:01.977Z,71.10
2017-10-24T15:43:29.632Z,71.00
2017-10-24T15:45:57.264Z,71.60
2017-10-24T15:48:25.798Z,71.20
2017-10-24T15:50:53.437Z,71.10
2017-10-24T15:53:21.021Z,71.40
2017-10-24T15:55:48.583Z,71.40
2017-10-24T15:58:16.133Z,71.50
2017-10-24T16:00:43.694Z,71.60
2017-10-24T16:03:11.262Z,72.10
2017-10-24T16:05:38.850Z,72.20
2017-10-24T16:08:07.172Z,72.90
2017-10-24T16:10:41.641Z,72.60
2017-10-24T16:13:09.205Z,72.70
2017-10-24T16:15:36.784Z,73.50
2017-10-24T16:18:05.160Z,74.00
2017-10-24T16:20:33.630Z,73.90
2017-10-24T16:23:01.974Z,74.40
2017-10-24T16:25:29.538Z,74.40
2017-10-24T16:27:57.125Z,74.70
2017-10-24T16:30:24.705Z,75.00
2017-10-24T16:32:53.036Z,75.90
2017-10-24T16:35:20.592Z,75.90
2017-10-24T16:37:48.154Z,76.50
2017-10-24T16:40:15.712Z,76.40
2017-10-24T16:42:43.283Z,76.80
2017-10-24T16:45:10.833Z,77.30
2017-10-24T16:47:38.400Z,77.80
2017-10-24T16:50:06.001Z,77.90
2017-10-24T16:52:34.324Z,78.50
2017-10-24T16:55:01.911Z,78.40
2017-10-24T16:57:29.510Z,77.90
2017-10-24T16:59:57.118Z,78.90
2017-10-24T17:02:28.525Z,78.50
2017-10-24T17:04:56.877Z,79.10
2017-10-24T17:07:24.772Z,79.10
2017-10-24T17:09:52.908Z,79.20
2017-10-24T17:12:20.586Z,78.70
2017-10-24T17:14:48.197Z,78.80
2017-10-24T17:17:15.835Z,79.50
2017-10-24T17:19:44.137Z,79.60
2017-10-24T17:22:12.888Z,80.10
2017-10-24T17:24:40.487Z,80.30
2017-10-24T17:27:08.038Z,81.00
2017-10-24T17:29:35.608Z,81.10
2017-10-24T17:32:03.148Z,81.30
2017-10-24T17:34:30.734Z,81.40
2017-10-24T17:36:58.422Z,81.30
2017-10-24T17:39:26.010Z,81.30
2017-10-24T17:41:54.328Z,82.10
2017-10-24T17:44:21.903Z,82.10
2017-10-24T17:46:49.496Z,82.10
2017-10-24T17:49:17.115Z,81.90
2017-10-24T17:51:44.748Z,81.90
2017-10-24T17:54:12.413Z,82.30
2017-10-24T17:56:40.110Z,82.20
2017-10-24T17:59:07.685Z,82.00
2017-10-24T18:01:35.294Z,81.60
2017-10-24T18:04:03.722Z,80.90
2017-10-24T18:06:31.362Z,80.90
2017-10-24T18:08:58.964Z,80.70
2017-10-24T18:11:27.327Z,81.50
2017-10-24T18:13:54.992Z,81.40
2017-10-24T18:16:22.638Z,81.50
2017-10-24T18:18:50.245Z,81.60
2017-10-24T18:21:18.585Z,82.20
2017-10-24T18:23:46.168Z,82.20
2017-10-24T18:26:13.861Z,81.80
2017-10-24T18:28:42.314Z,81.70
2017-10-24T18:31:09.958Z,81.70
2017-10-24T18:33:37.533Z,82.40
2017-10-24T18:36:05.123Z,82.30
2017-10-24T18:38:33.494Z,82.00
2017-10-24T18:41:01.829Z,81.10
2017-10-24T18:43:29.505Z,80.90
2017-10-24T18:45:57.155Z,81.20
2017-10-24T18:48:24.801Z,80.70
2017-10-24T18:50:52.386Z,80.30
2017-10-24T18:53:20.046Z,80.20
2017-10-24T18:55:47.740Z,80.00
2017-10-24T18:58:16.238Z,79.80
2017-10-24T19:00:44.577Z,79.70
2017-10-24T19:03:12.211Z,79.70
2017-10-24T19:05:39.907Z,79.90
2017-10-24T19:08:07.605Z,79.80
2017-10-24T19:10:35.285Z,80.00
2017-10-24T19:13:02.867Z,79.60
2017-10-24T19:15:30.493Z,80.20
2017-10-24T19:17:58.999Z,80.80
2017-10-24T19:20:26.635Z,80.70
2017-10-24T19:22:54.214Z,80.80
2017-10-24T19:25:21.798Z,80.50
2017-10-24T19:27:49.386Z,80.50
2017-10-24T19:30:16.952Z,81.40
2017-10-24T19:32:44.494Z,81.80
2017-10-24T19:35:12.067Z,81.80
2017-10-24T19:37:39.981Z,81.80
2017-10-24T19:40:07.672Z,81.90
2017-10-24T19:42:35.762Z,81.90
2017-10-24T19:45:03.473Z,81.70
2017-10-24T19:47:31.124Z,81.40
2017-10-24T19:49:59.613Z,81.50
2017-10-24T19:52:27.996Z,80.60
2017-10-24T19:54:55.590Z,80.60
2017-10-24T19:57:23.156Z,81.00
2017-10-24T19:59:50.786Z,80.50
2017-10-24T20:02:18.530Z,80.70
2017-10-24T20:04:46.109Z,80.80
2017-10-24T20:07:14.177Z,80.80
2017-10-24T20:09:41.775Z,81.50
2017-10-24T20:12:09.320Z,81.70
2017-10-24T20:14:36.878Z,81.70
2017-10-24T20:17:04.446Z,81.30
2017-10-24T20:19:32.019Z,81.50
2017-10-24T20:21:59.751Z,81.70
2017-10-24T20:24:27.319Z,81.80
2017-10-24T20:26:54.895Z,81.80
2017-10-24T20:29:22.518Z,81.80
2017-10-24T20:31:50.102Z,81.90
2017-10-24T20:34:17.724Z,82.10
2017-10-24T20:36:45.348Z,82.30
2017-10-24T20:39:12.918Z,82.50
2017-10-24T20:41:40.489Z,83.10
2017-10-24T20:44:08.047Z,83.20
2017-10-24T20:46:35.634Z,83.60
2017-10-24T20:49:04.063Z,84.00
2017-10-24T20:51:31.732Z,84.00
2017-10-24T20:53:59.450Z,83.80
2017-10-24T20:56:27.009Z,83.70
2017-10-24T20:58:54.806Z,84.50
2017-10-24T21:01:24.197Z,84.00
2017-10-24T21:03:51.804Z,84.10
2017-10-24T21:06:19.459Z,84.40
2017-10-24T21:08:47.087Z,84.60
2017-10-24T21:11:14.721Z,84.80
2017-10-24T21:13:43.196Z,85.50
2017-10-24T21:16:11.015Z,85.50
2017-10-24T21:18:38.586Z,85.50
2017-10-24T21:21:06.173Z,85.50
2017-10-24T21:23:33.787Z,85.50
2017-10-24T21:26:01.365Z,85.50
2017-10-24T21:28:34.709Z,85.50
2017-10-24T21:31:06.304Z,85.80
2017-10-24T21:33:39.915Z,85.80
2017-10-24T21:36:08.250Z,85.90
2017-10-24T21:38:35.837Z,85.90
2017-10-24T21:41:03.437Z,85.90
2017-10-24T21:43:31.025Z,85.90
2017-10-24T21:45:58.585Z,86.00
2017-10-24T21:48:26.152Z,86.20
2017-10-24T21:50:53.708Z,86.10
2017-10-24T21:53:21.304Z,86.20
2017-10-24T21:55:49.687Z,86.40
2017-10-24T21:58:18.045Z,86.30
2017-10-24T22:00:51.674Z,86.30
2017-10-24T22:03:20.002Z,86.50
2017-10-24T22:05:47.558Z,86.50
2017-10-24T22:08:15.104Z,86.60
2017-10-24T22:10:42.671Z,86.50
2017-10-24T22:13:10.209Z,86.70
2017-10-24T22:15:37.800Z,86.80
2017-10-24T22:18:05.390Z,87.20
2017-10-24T22:20:32.988Z,87.20
2017-10-24T22:23:01.334Z,88.10
2017-10-24T22:25:28.899Z,87.40
2017-10-24T22:27:57.257Z,87.90
2017-10-24T22:30:24.817Z,87.90
2017-10-24T22:32:52.380Z,88.20
2017-10-24T22:35:19.953Z,88.20
2017-10-24T22:37:47.530Z,88.40
2017-10-24T22:40:15.842Z,88.70
2017-10-24T22:42:43.379Z,88.70
2017-10-24T22:45:10.957Z,89.10
2017-10-24T22:47:38.529Z,89.40
2017-10-24T22:50:06.077Z,89.30
2017-10-24T22:52:33.626Z,89.20
2017-10-24T22:55:01.203Z,89.40
2017-10-24T22:57:28.755Z,89.30
2017-10-24T22:59:56.308Z,89.60
2017-10-24T23:02:23.887Z,90.00
2017-10-24T23:04:51.444Z,90.10
2017-10-24T23:07:19.023Z,90.10
2017-10-24T23:09:46.586Z,90.10
2017-10-24T23:12:14.169Z,90.10
2017-10-24T23:14:41.795Z,90.10
2017-10-24T23:17:09.354Z,90.20
2017-10-24T23:19:43.899Z,90.40
2017-10-24T23:22:12.225Z,90.50
2017-10-24T23:24:39.804Z,90.80
2017-10-24T23:27:08.142Z,90.40
2017-10-24T23:29:35.711Z,90.40
2017-10-24T23:32:03.278Z,90.40
2017-10-24T23:34:30.848Z,90.50
2017-10-24T23:36:59.152Z,90.70
2017-10-24T23:39:26.707Z,90.70
2017-10-24T23:41:55.033Z,91.20
2017-10-24T23:44:22.601Z,91.20
2017-10-24T23:46:50.174Z,91.30
2017-10-24T23:49:17.765Z,91.40
2017-10-24T23:51:45.329Z,91.70
2017-10-24T23:54:12.902Z,91.90
2017-10-24T23:56:40.484Z,91.90
2017-10-24T23:59:10.602Z,92.00
